createdAt,value
2023-05-24T00:02:18.825Z,15.73
2023-05-24T00:04:37.272Z,16.20
2023-05-24T00:06:54.453Z,15.95
2023-05-24T00:09:12.030Z,15.88
2023-05-24T00:11:29.822Z,15.98
2023-05-24T00:13:49.278Z,15.82
2023-05-24T00:16:06.731Z,14.55
2023-05-24T00:18:24.503Z,15.18
2023-05-24T00:20:42.225Z,14.68
2023-05-24T00:23:00.182Z,14.63
2023-05-24T00:25:17.464Z,14.77
2023-05-24T00:27:34.700Z,13.98
2023-05-24T00:29:51.856Z,14.45
2023-05-24T00:32:12.041Z,15.32
2023-05-24T00:34:29.143Z,13.50
2023-05-24T00:36:49.193Z,13.82
2023-05-24T00:39:06.615Z,13.95
2023-05-24T00:41:24.246Z,14.43
2023-05-24T00:43:42.050Z,14.02
2023-05-24T00:46:00.516Z,13.77
2023-05-24T00:48:20.772Z,13.27
2023-05-24T00:50:38.444Z,13.77
2023-05-24T00:52:55.541Z,12.65
2023-05-24T00:55:13.302Z,13.23
2023-05-24T00:57:31.022Z,14.18
2023-05-24T00:59:48.314Z,14.20
2023-05-24T01:02:06.624Z,13.25
2023-05-24T01:04:23.991Z,13.90
2023-05-24T01:06:41.407Z,13.45
2023-05-24T01:08:59.234Z,13.48
2023-05-24T01:11:17.598Z,13.15
2023-05-24T01:13:34.949Z,12.90
2023-05-24T01:15:53.466Z,13.27
2023-05-24T01:18:11.073Z,12.70
2023-05-24T01:20:28.205Z,13.00
2023-05-24T01:22:46.584Z,12.75
2023-05-24T01:25:03.804Z,12.10
2023-05-24T01:27:20.840Z,11.80
2023-05-24T01:29:38.284Z,12.05
2023-05-24T01:31:55.418Z,12.57
2023-05-24T01:34:12.754Z,12.60
2023-05-24T01:36:31.601Z,12.18
2023-05-24T01:38:50.264Z,11.25
2023-05-24T01:41:07.431Z,11.35
2023-05-24T01:43:27.395Z,11.85
2023-05-24T01:45:44.409Z,11.40
2023-05-24T01:48:01.933Z,11.75
2023-05-24T01:50:19.483Z,11.68
2023-05-24T01:52:36.903Z,11.80
2023-05-24T01:54:53.852Z,10.88
2023-05-24T01:57:11.536Z,11.60
2023-05-24T01:59:28.874Z,11.80
2023-05-24T02:01:47.416Z,10.90
2023-05-24T02:04:04.836Z,10.57
2023-05-24T02:06:22.220Z,11.70
2023-05-24T02:08:39.606Z,11.43
2023-05-24T02:10:56.897Z,10.82
2023-05-24T02:13:14.194Z,10.38
2023-05-24T02:15:31.576Z,11.23
2023-05-24T02:17:48.942Z,10.75
2023-05-24T02:20:06.232Z,11.27
2023-05-24T02:22:23.235Z,11.60
2023-05-24T02:24:40.891Z,10.32
2023-05-24T02:26:58.268Z,10.70
2023-05-24T02:29:16.032Z,10.25
2023-05-24T02:31:33.528Z,10.48
2023-05-24T02:33:50.931Z,10.07
2023-05-24T02:36:08.269Z,10.00
2023-05-24T02:38:26.567Z,9.48
2023-05-24T02:40:44.164Z,8.73
2023-05-24T02:43:01.614Z,9.90
2023-05-24T02:45:18.989Z,9.73
2023-05-24T02:47:36.302Z,9.07
2023-05-24T02:49:53.598Z,9.85
2023-05-24T02:52:11.934Z,10.25
2023-05-24T02:54:29.250Z,9.07
2023-05-24T02:56:46.557Z,9.45
2023-05-24T02:59:04.247Z,9.40
2023-05-24T03:01:22.675Z,9.63
2023-05-24T03:03:40.178Z,9.35
2023-05-24T03:05:57.513Z,8.93
2023-05-24T03:08:14.379Z,9.25
2023-05-24T03:10:31.687Z,8.85
2023-05-24T03:12:49.063Z,9.57
2023-05-24T03:15:05.951Z,9.40
2023-05-24T03:17:22.792Z,9.10
2023-05-24T03:19:39.727Z,8.75
2023-05-24T03:21:57.098Z,8.30
2023-05-24T03:24:13.968Z,8.80
2023-05-24T03:26:30.902Z,7.82
2023-05-24T03:28:48.048Z,8.20
2023-05-24T03:31:04.961Z,8.13
2023-05-24T03:33:22.027Z,10.98
2023-05-24T03:35:38.919Z,10.02
2023-05-24T03:37:55.817Z,9.45
2023-05-24T03:40:12.734Z,9.18
2023-05-24T03:42:29.588Z,8.80
2023-05-24T03:44:46.888Z,9.15
2023-05-24T03:47:03.835Z,8.90
2023-05-24T03:49:20.793Z,8.38
2023-05-24T03:51:37.724Z,8.48
2023-05-24T03:53:54.648Z,9.35
2023-05-24T03:56:11.537Z,8.65
2023-05-24T03:58:28.502Z,9.30
2023-05-24T04:00:45.931Z,8.40
2023-05-24T04:03:02.956Z,8.93
2023-05-24T04:05:19.890Z,8.75
2023-05-24T04:07:36.876Z,9.60
2023-05-24T04:09:53.773Z,8.02
2023-05-24T04:12:10.655Z,8.00
2023-05-24T04:14:27.540Z,8.52
2023-05-24T04:16:44.507Z,7.28
2023-05-24T04:19:01.495Z,7.97
2023-05-24T04:21:18.417Z,7.75
2023-05-24T04:23:35.323Z,8.05
2023-05-24T04:25:52.252Z,7.97
2023-05-24T04:28:09.129Z,8.48
2023-05-24T04:30:26.051Z,7.80
2023-05-24T04:32:42.993Z,8.30
2023-05-24T04:34:59.931Z,8.32
2023-05-24T04:37:16.829Z,7.25
2023-05-24T04:39:33.755Z,7.15
2023-05-24T04:41:50.683Z,9.95
2023-05-24T04:44:07.583Z,10.48
2023-05-24T04:46:25.015Z,8.77
2023-05-24T04:48:41.950Z,8.95
2023-05-24T04:50:58.912Z,8.85
2023-05-24T04:53:15.828Z,8.18
2023-05-24T04:55:32.728Z,7.63
2023-05-24T04:57:49.657Z,7.68
2023-05-24T05:00:07.038Z,6.97
2023-05-24T05:02:24.574Z,7.60
2023-05-24T05:04:41.552Z,8.77
2023-05-24T05:06:58.949Z,9.27
2023-05-24T05:09:15.832Z,8.77
2023-05-24T05:11:32.794Z,7.63
2023-05-24T05:13:49.708Z,7.35
2023-05-24T05:16:06.691Z,7.18
2023-05-24T05:18:23.615Z,7.15
2023-05-24T05:20:41.304Z,6.75
2023-05-24T05:22:58.437Z,6.43
2023-05-24T05:25:15.833Z,6.40
2023-05-24T05:27:32.768Z,6.15
2023-05-24T05:29:49.704Z,6.60
2023-05-24T05:32:06.741Z,6.45
2023-05-24T05:34:24.186Z,5.90
2023-05-24T05:36:41.599Z,6.65
2023-05-24T05:38:58.579Z,6.18
2023-05-24T05:41:15.454Z,6.07
2023-05-24T05:43:32.329Z,5.82
2023-05-24T05:45:49.820Z,5.65
2023-05-24T05:48:06.795Z,5.90
2023-05-24T05:50:23.706Z,6.20
2023-05-24T05:52:40.628Z,6.07
2023-05-24T05:54:57.602Z,5.63
2023-05-24T05:57:14.542Z,5.28
2023-05-24T05:59:31.421Z,4.95
2023-05-24T06:01:48.322Z,5.07
2023-05-24T06:04:05.296Z,4.35
2023-05-24T06:06:22.291Z,4.85
2023-05-24T06:08:39.184Z,4.03
2023-05-24T06:10:56.090Z,4.10
2023-05-24T06:13:13.464Z,3.80
2023-05-24T06:15:30.380Z,4.68
2023-05-24T06:17:47.355Z,3.97
2023-05-24T06:20:04.260Z,4.50
2023-05-24T06:22:21.191Z,4.57
2023-05-24T06:24:38.146Z,3.40
2023-05-24T06:26:55.512Z,4.13
2023-05-24T06:29:12.425Z,3.58
2023-05-24T06:31:29.410Z,4.25
2023-05-24T06:33:52.521Z,3.45
2023-05-24T06:36:13.688Z,3.33
2023-05-24T06:38:30.567Z,3.40
2023-05-24T06:40:47.505Z,2.92
2023-05-24T06:43:04.450Z,3.13
2023-05-24T06:45:21.372Z,3.08
2023-05-24T06:47:40.373Z,3.00
2023-05-24T06:49:57.302Z,3.70
2023-05-24T06:52:14.256Z,2.85
2023-05-24T06:54:31.342Z,3.28
2023-05-24T06:56:48.227Z,3.00
2023-05-24T06:59:05.149Z,3.30
2023-05-24T07:01:22.124Z,3.00
2023-05-24T07:03:39.118Z,3.40
2023-05-24T07:05:56.036Z,3.30
2023-05-24T07:08:12.976Z,3.00
2023-05-24T07:10:29.954Z,3.05
2023-05-24T07:12:46.837Z,3.05
2023-05-24T07:15:03.762Z,3.10
2023-05-24T07:17:20.708Z,3.22
2023-05-24T07:19:38.217Z,2.92
2023-05-24T07:21:55.137Z,3.25
2023-05-24T07:24:13.090Z,3.15
2023-05-24T07:26:31.654Z,3.03
2023-05-24T07:28:49.046Z,3.25
2023-05-24T07:31:05.963Z,3.30
2023-05-24T07:33:22.890Z,3.00
2023-05-24T07:35:39.945Z,3.38
2023-05-24T07:37:56.923Z,3.88
2023-05-24T07:40:13.837Z,2.97
2023-05-24T07:42:30.735Z,3.08
2023-05-24T07:44:48.156Z,2.78
2023-05-24T07:47:05.062Z,2.83
2023-05-24T07:49:22.436Z,2.78
2023-05-24T07:51:39.323Z,3.08
2023-05-24T07:53:56.219Z,3.00
2023-05-24T07:56:13.164Z,2.67
2023-05-24T07:58:30.108Z,2.40
2023-05-24T08:00:47.057Z,2.70
2023-05-24T08:03:04.002Z,2.88
2023-05-24T08:05:21.012Z,2.85
2023-05-24T08:07:37.911Z,2.97
2023-05-24T08:09:54.842Z,2.92
2023-05-24T08:12:11.732Z,2.88
2023-05-24T08:14:28.692Z,2.40
2023-05-24T08:16:45.714Z,3.35
2023-05-24T08:19:02.644Z,3.25
2023-05-24T08:21:19.550Z,2.63
2023-05-24T08:23:36.498Z,2.80
2023-05-24T08:25:53.461Z,2.80
2023-05-24T08:28:10.442Z,2.97
2023-05-24T08:30:27.689Z,2.83
2023-05-24T08:32:44.693Z,2.65
2023-05-24T08:35:18.230Z,2.80
2023-05-24T08:37:36.897Z,2.85
2023-05-24T08:39:53.847Z,2.88
2023-05-24T08:42:10.865Z,2.63
2023-05-24T08:44:27.834Z,2.90
2023-05-24T08:46:44.801Z,2.45
2023-05-24T08:49:01.830Z,2.70
2023-05-24T08:51:18.781Z,2.90
2023-05-24T08:53:35.705Z,2.80
2023-05-24T08:55:52.631Z,2.85
2023-05-24T08:58:09.568Z,2.65
2023-05-24T09:00:26.502Z,2.83
2023-05-24T09:02:43.475Z,2.63
2023-05-24T09:05:00.422Z,3.00
2023-05-24T09:07:17.786Z,2.72
2023-05-24T09:09:34.810Z,3.20
2023-05-24T09:11:51.695Z,2.85
2023-05-24T09:14:08.588Z,3.30
2023-05-24T09:16:25.555Z,3.00
2023-05-24T09:18:42.548Z,3.35
2023-05-24T09:20:59.519Z,3.08
2023-05-24T09:23:16.416Z,3.00
2023-05-24T09:25:33.346Z,2.80
2023-05-24T09:27:50.248Z,3.03
2023-05-24T09:30:07.176Z,3.40
2023-05-24T09:32:24.144Z,3.10
2023-05-24T09:34:41.056Z,3.10
2023-05-24T09:36:57.993Z,3.30
2023-05-24T09:39:14.902Z,3.45
2023-05-24T09:41:31.805Z,3.58
2023-05-24T09:43:48.729Z,3.42
2023-05-24T09:46:05.658Z,3.20
2023-05-24T09:48:23.043Z,3.25
2023-05-24T09:50:39.994Z,3.72
2023-05-24T09:52:56.901Z,3.70
2023-05-24T09:55:13.880Z,3.20
2023-05-24T09:57:30.874Z,3.30
2023-05-24T09:59:47.830Z,3.40
2023-05-24T10:02:04.697Z,2.97
2023-05-24T10:04:21.750Z,3.58
2023-05-24T10:06:39.202Z,3.42
2023-05-24T10:08:56.103Z,3.25
2023-05-24T10:11:12.986Z,2.95
2023-05-24T10:13:30.453Z,2.95
2023-05-24T10:15:47.490Z,3.20
2023-05-24T10:18:04.486Z,3.38
2023-05-24T10:20:21.551Z,3.17
2023-05-24T10:22:39.015Z,3.45
2023-05-24T10:24:55.895Z,3.45
2023-05-24T10:27:12.798Z,3.70
2023-05-24T10:29:29.739Z,3.85
2023-05-24T10:31:47.303Z,3.85
2023-05-24T10:34:08.356Z,3.90
2023-05-24T10:36:25.945Z,3.33
2023-05-24T10:38:42.883Z,3.63
2023-05-24T10:40:59.848Z,3.63
2023-05-24T10:43:16.780Z,4.05
2023-05-24T10:45:33.698Z,3.75
2023-05-24T10:47:50.602Z,4.25
2023-05-24T10:50:07.554Z,4.60
2023-05-24T10:52:24.440Z,3.90
2023-05-24T10:54:49.640Z,4.78
2023-05-24T10:57:16.630Z,4.40
2023-05-24T10:59:33.565Z,4.13
2023-05-24T11:01:50.621Z,4.30
2023-05-24T11:04:07.565Z,4.22
2023-05-24T11:06:24.452Z,4.38
2023-05-24T11:08:41.904Z,4.32
2023-05-24T11:11:05.707Z,4.20
2023-05-24T11:13:28.660Z,4.05
2023-05-24T11:15:46.054Z,3.90
2023-05-24T11:18:03.029Z,4.63
2023-05-24T11:20:20.460Z,4.63
2023-05-24T11:22:37.390Z,4.00
2023-05-24T11:24:54.264Z,3.88
2023-05-24T11:27:11.323Z,4.13
2023-05-24T11:29:28.811Z,3.90
2023-05-24T11:31:45.847Z,4.28
2023-05-24T11:34:03.427Z,3.90
2023-05-24T11:36:20.403Z,4.38
2023-05-24T11:38:37.355Z,4.28
2023-05-24T11:40:54.288Z,4.18
2023-05-24T11:43:11.207Z,3.75
2023-05-24T11:45:28.113Z,4.60
2023-05-24T11:47:45.054Z,4.45
2023-05-24T11:50:02.515Z,4.22
2023-05-24T11:52:19.428Z,4.13
2023-05-24T11:54:36.342Z,3.85
2023-05-24T11:56:53.671Z,3.70
2023-05-24T11:59:10.602Z,4.28
2023-05-24T12:01:27.619Z,4.20
2023-05-24T12:03:44.807Z,4.22
2023-05-24T12:06:01.884Z,3.83
2023-05-24T12:08:18.800Z,4.00
2023-05-24T12:10:35.717Z,4.07
2023-05-24T12:12:52.754Z,4.18
2023-05-24T12:15:09.649Z,4.25
2023-05-24T12:17:26.629Z,4.50
2023-05-24T12:19:43.673Z,4.43
2023-05-24T12:22:00.731Z,4.63
2023-05-24T12:24:17.645Z,4.32
2023-05-24T12:26:34.586Z,4.10
2023-05-24T12:28:51.939Z,3.80
2023-05-24T12:31:08.924Z,4.20
2023-05-24T12:33:25.835Z,4.15
2023-05-24T12:35:42.730Z,3.63
2023-05-24T12:37:59.592Z,4.15
2023-05-24T12:40:16.534Z,3.50
2023-05-24T12:42:33.446Z,4.15
2023-05-24T12:44:50.398Z,4.15
2023-05-24T12:47:07.678Z,3.53
2023-05-24T12:49:24.751Z,3.95
2023-05-24T12:51:41.788Z,3.92
2023-05-24T12:53:58.681Z,3.85
2023-05-24T12:56:15.592Z,4.18
2023-05-24T12:58:32.503Z,3.70
2023-05-24T13:00:49.419Z,4.50
2023-05-24T13:03:06.895Z,4.25
2023-05-24T13:05:23.849Z,3.95
2023-05-24T13:07:40.864Z,3.95
2023-05-24T13:09:57.952Z,3.80
2023-05-24T13:12:15.328Z,4.15
2023-05-24T13:14:32.246Z,3.50
2023-05-24T13:16:49.303Z,4.10
2023-05-24T13:19:06.403Z,3.83
2023-05-24T13:21:23.372Z,4.28
2023-05-24T13:23:40.362Z,3.90
2023-05-24T13:25:57.318Z,3.45
2023-05-24T13:28:14.256Z,3.97
2023-05-24T13:30:31.155Z,4.20
2023-05-24T13:32:51.376Z,3.50
2023-05-24T13:35:08.756Z,3.78
2023-05-24T13:37:25.721Z,4.47
2023-05-24T13:39:42.627Z,4.10
2023-05-24T13:41:59.574Z,4.28
2023-05-24T13:44:16.612Z,4.28
2023-05-24T13:46:33.578Z,4.18
2023-05-24T13:48:50.518Z,5.63
2023-05-24T13:51:07.447Z,4.00
2023-05-24T13:53:24.390Z,4.28
2023-05-24T13:55:41.272Z,4.50
2023-05-24T13:57:58.189Z,4.18
2023-05-24T14:00:15.077Z,4.57
2023-05-24T14:02:32.062Z,3.92
2023-05-24T14:04:49.386Z,4.50
2023-05-24T14:07:06.380Z,3.70
2023-05-24T14:09:23.795Z,3.65
2023-05-24T14:11:41.207Z,4.18
2023-05-24T14:16:18.026Z,4.30
2023-05-24T14:18:35.040Z,4.25
2023-05-24T14:20:52.023Z,4.13
2023-05-24T14:23:08.938Z,4.65
2023-05-24T14:25:26.347Z,4.38
2023-05-24T14:27:43.815Z,4.45
2023-05-24T14:30:00.836Z,4.38
2023-05-24T14:32:17.914Z,4.20
2023-05-24T14:34:34.872Z,4.35
2023-05-24T14:36:51.792Z,4.00
2023-05-24T14:39:08.725Z,4.90
2023-05-24T14:41:25.679Z,4.43
2023-05-24T14:43:42.643Z,4.25
2023-05-24T14:45:59.616Z,4.13
2023-05-24T14:48:16.654Z,4.22
2023-05-24T14:50:33.599Z,4.22
2023-05-24T14:52:50.886Z,4.00
2023-05-24T14:55:08.590Z,4.03
2023-05-24T14:57:25.509Z,4.50
2023-05-24T14:59:42.427Z,4.15
2023-05-24T15:01:59.356Z,4.05
2023-05-24T15:04:16.270Z,4.03
2023-05-24T15:06:33.201Z,4.07
2023-05-24T15:08:50.569Z,3.83
2023-05-24T15:11:07.466Z,4.40
2023-05-24T15:13:24.355Z,4.10
2023-05-24T15:15:41.302Z,4.18
2023-05-24T15:17:58.244Z,3.72
2023-05-24T15:20:15.231Z,3.80
2023-05-24T15:22:32.126Z,4.53
2023-05-24T15:24:49.064Z,4.25
2023-05-24T15:27:05.992Z,4.10
2023-05-24T15:29:22.912Z,4.25
2023-05-24T15:31:39.814Z,4.40
2023-05-24T15:33:56.778Z,4.03
2023-05-24T15:36:13.685Z,4.60
2023-05-24T15:38:30.584Z,4.78
2023-05-24T15:40:47.500Z,4.57
2023-05-24T15:43:04.881Z,4.65
2023-05-24T15:45:21.770Z,4.13
2023-05-24T15:47:38.733Z,4.50
2023-05-24T15:49:55.642Z,4.90
2023-05-24T15:52:12.621Z,4.40
2023-05-24T15:54:29.500Z,4.82
2023-05-24T15:56:46.510Z,4.78
2023-05-24T15:59:03.892Z,4.80
2023-05-24T16:01:20.917Z,4.70
2023-05-24T16:03:38.274Z,4.72
2023-05-24T16:05:55.372Z,4.80
2023-05-24T16:08:12.307Z,4.90
2023-05-24T16:10:29.242Z,4.80
2023-05-24T16:12:46.138Z,4.65
2023-05-24T16:15:03.075Z,4.85
2023-05-24T16:17:20.083Z,5.35
2023-05-24T16:19:37.124Z,5.13
2023-05-24T16:21:54.099Z,4.65
2023-05-24T16:24:11.575Z,4.43
2023-05-24T16:26:28.551Z,4.55
2023-05-24T16:28:45.532Z,4.78
2023-05-24T16:31:02.470Z,4.25
2023-05-24T16:33:19.402Z,4.43
2023-05-24T16:35:36.351Z,4.65
2023-05-24T16:37:53.314Z,4.88
2023-05-24T16:40:10.259Z,4.50
2023-05-24T16:42:27.178Z,5.35
2023-05-24T16:44:44.121Z,4.90
2023-05-24T16:47:01.100Z,4.97
2023-05-24T16:49:18.464Z,4.65
2023-05-24T16:51:35.397Z,5.10
2023-05-24T16:53:52.328Z,4.90
2023-05-24T16:56:09.257Z,5.10
2023-05-24T16:58:26.184Z,5.10
2023-05-24T17:00:43.286Z,4.80
2023-05-24T17:03:00.416Z,5.25
2023-05-24T17:05:17.544Z,4.43
2023-05-24T17:07:34.463Z,4.57
2023-05-24T17:09:51.897Z,4.15
2023-05-24T17:12:08.867Z,4.95
2023-05-24T17:14:25.855Z,4.75
2023-05-24T17:16:42.843Z,4.38
2023-05-24T17:18:59.849Z,4.30
2023-05-24T17:21:16.745Z,4.82
2023-05-24T17:23:33.720Z,4.30
2023-05-24T17:25:50.660Z,4.43
2023-05-24T17:28:07.554Z,5.35
2023-05-24T17:30:24.489Z,4.82
2023-05-24T17:32:41.467Z,4.82
2023-05-24T17:34:58.406Z,4.47
2023-05-24T17:37:15.348Z,4.20
2023-05-24T17:39:32.300Z,4.40
2023-05-24T17:41:49.263Z,4.70
2023-05-24T17:44:06.202Z,5.18
2023-05-24T17:46:23.175Z,5.05
2023-05-24T17:48:40.109Z,4.30
2023-05-24T17:50:58.445Z,4.68
2023-05-24T17:53:30.444Z,4.82
2023-05-24T17:55:48.383Z,5.50
2023-05-24T17:58:05.766Z,5.60
2023-05-24T18:00:22.716Z,6.03
2023-05-24T18:02:39.725Z,5.35
2023-05-24T18:04:56.845Z,5.10
2023-05-24T18:07:13.789Z,4.93
2023-05-24T18:09:30.750Z,4.70
2023-05-24T18:11:47.682Z,4.43
2023-05-24T18:14:04.636Z,4.85
2023-05-24T18:16:21.603Z,5.05
2023-05-24T18:18:38.581Z,4.70
2023-05-24T18:20:55.518Z,4.38
2023-05-24T18:23:12.430Z,4.65
2023-05-24T18:25:29.341Z,4.60
2023-05-24T18:27:46.233Z,4.43
2023-05-24T18:30:03.190Z,4.72
2023-05-24T18:32:20.254Z,5.60
2023-05-24T18:34:37.142Z,5.95
2023-05-24T18:36:54.128Z,5.38
2023-05-24T18:39:11.509Z,5.30
2023-05-24T18:41:28.410Z,4.47
2023-05-24T18:43:45.323Z,4.95
2023-05-24T18:46:02.273Z,4.43
2023-05-24T18:48:19.184Z,4.70
2023-05-24T18:50:36.090Z,4.05
2023-05-24T18:52:52.970Z,4.50
2023-05-24T18:55:09.895Z,4.85
2023-05-24T18:57:26.794Z,4.85
2023-05-24T18:59:43.684Z,4.70
2023-05-24T19:02:00.667Z,4.88
2023-05-24T19:04:17.688Z,4.97
2023-05-24T19:06:34.624Z,4.70
2023-05-24T19:08:52.069Z,5.10
2023-05-24T19:11:09.022Z,5.95
2023-05-24T19:13:25.984Z,5.97
2023-05-24T19:15:43.184Z,5.10
2023-05-24T19:18:00.503Z,4.80
2023-05-24T19:20:17.854Z,5.25
2023-05-24T19:22:35.134Z,4.47
2023-05-24T19:24:52.065Z,4.75
2023-05-24T19:27:09.001Z,4.85
2023-05-24T19:29:25.932Z,4.97
2023-05-24T19:31:42.919Z,4.63
2023-05-24T19:34:01.178Z,5.25
2023-05-24T19:36:18.273Z,4.55
2023-05-24T19:38:35.179Z,4.78
2023-05-24T19:40:52.503Z,5.20
2023-05-24T19:43:09.458Z,5.25
2023-05-24T19:45:26.435Z,4.50
2023-05-24T19:47:43.360Z,4.43
2023-05-24T19:50:00.329Z,4.75
2023-05-24T19:52:17.271Z,4.00
2023-05-24T19:54:34.217Z,4.65
2023-05-24T19:56:51.199Z,4.40
2023-05-24T19:59:08.147Z,4.28
2023-05-24T20:01:25.080Z,5.13
2023-05-24T20:03:42.027Z,5.07
2023-05-24T20:05:59.019Z,4.80
2023-05-24T20:08:15.972Z,4.75
2023-05-24T20:10:32.916Z,5.20
2023-05-24T20:12:49.857Z,4.70
2023-05-24T20:15:06.791Z,4.90
2023-05-24T20:17:23.808Z,4.93
2023-05-24T20:19:40.804Z,4.45
2023-05-24T20:21:57.761Z,4.50
2023-05-24T20:24:14.699Z,5.35
2023-05-24T20:26:31.702Z,5.22
2023-05-24T20:28:48.647Z,4.80
2023-05-24T20:31:05.663Z,5.35
2023-05-24T20:33:22.579Z,5.20
2023-05-24T20:35:39.551Z,5.15
2023-05-24T20:37:56.475Z,5.80
2023-05-24T20:40:13.432Z,5.55
2023-05-24T20:42:30.348Z,5.78
2023-05-24T20:44:47.274Z,4.90
2023-05-24T20:47:04.209Z,5.00
2023-05-24T20:49:21.614Z,5.10
2023-05-24T20:51:38.954Z,5.20
2023-05-24T20:53:55.993Z,4.95
2023-05-24T20:56:12.882Z,5.25
2023-05-24T20:58:29.828Z,5.15
2023-05-24T21:00:46.791Z,5.45
2023-05-24T21:03:04.553Z,5.20
2023-05-24T21:05:21.658Z,5.35
2023-05-24T21:07:38.565Z,5.10
2023-05-24T21:09:55.503Z,4.80
2023-05-24T21:12:12.439Z,5.32
2023-05-24T21:14:31.387Z,4.55
2023-05-24T21:16:48.856Z,5.30
2023-05-24T21:19:05.829Z,4.35
2023-05-24T21:21:22.741Z,4.93
2023-05-24T21:23:39.747Z,4.70
2023-05-24T21:25:56.769Z,4.38
2023-05-24T21:28:13.670Z,5.00
2023-05-24T21:30:30.714Z,5.25
2023-05-24T21:32:47.715Z,4.63
2023-05-24T21:35:05.222Z,11.55
2023-05-24T21:37:22.145Z,16.75
2023-05-24T21:39:39.079Z,16.33
2023-05-24T21:41:55.991Z,13.63
2023-05-24T21:44:12.897Z,12.25
2023-05-24T21:46:29.869Z,10.00
2023-05-24T21:48:46.830Z,8.40
2023-05-24T21:51:03.733Z,6.95
2023-05-24T21:53:20.681Z,6.47
2023-05-24T21:55:37.691Z,6.47
2023-05-24T21:57:54.643Z,6.25
2023-05-24T22:00:13.604Z,5.90
2023-05-24T22:02:30.544Z,5.43
2023-05-24T22:04:48.063Z,4.97
2023-05-24T22:07:07.119Z,5.03
2023-05-24T22:09:26.172Z,5.93
2023-05-24T22:11:43.179Z,6.25
2023-05-24T22:14:00.140Z,6.22
2023-05-24T22:16:17.158Z,8.35
2023-05-24T22:18:34.101Z,8.85
2023-05-24T22:20:51.586Z,8.45
2023-05-24T22:23:08.782Z,6.85
2023-05-24T22:25:33.016Z,6.35
2023-05-24T22:27:52.217Z,5.68
2023-05-24T22:30:09.127Z,5.20
2023-05-24T22:32:26.136Z,5.03
2023-05-24T22:34:43.123Z,5.30
2023-05-24T22:37:07.261Z,5.82
2023-05-24T22:41:42.114Z,5.55
2023-05-24T22:43:59.737Z,5.53
2023-05-24T22:46:16.706Z,5.53
2023-05-24T22:48:33.937Z,5.32
2023-05-24T22:50:50.897Z,5.40
2023-05-24T22:53:07.921Z,5.40
2023-05-24T22:55:24.816Z,5.45
2023-05-24T22:57:42.120Z,5.13
2023-05-24T22:59:59.033Z,5.22
2023-05-24T23:02:18.528Z,5.10
2023-05-24T23:04:35.488Z,6.10
2023-05-24T23:06:53.430Z,5.70
2023-05-24T23:09:11.596Z,5.57
2023-05-24T23:11:28.587Z,6.22
2023-05-24T23:13:45.538Z,5.10
2023-05-24T23:16:02.489Z,5.35
2023-05-24T23:18:20.470Z,5.43
2023-05-24T23:20:37.416Z,5.30
2023-05-24T23:22:54.307Z,4.60
2023-05-24T23:25:11.226Z,5.00
2023-05-24T23:27:28.164Z,5.15
2023-05-24T23:29:45.154Z,5.25
2023-05-24T23:32:02.046Z,5.50
2023-05-24T23:34:18.955Z,5.15
2023-05-24T23:36:36.358Z,4.95
2023-05-24T23:41:24.250Z,5.03
2023-05-24T23:43:41.256Z,5.30
2023-05-24T23:45:58.203Z,5.35
2023-05-24T23:48:17.835Z,5.00
2023-05-24T23:50:42.861Z,5.32
2023-05-24T23:53:07.339Z,5.45
2023-05-24T23:55:24.275Z,5.55
2023-05-24T23:57:41.211Z,5.38
